Overseas Boston — WJBU — position and weather

sailwx.info

Track history (hours):
 
Tides and Currents Weather Stations Pressure Air Temp Water Temp Dewpoint Dewpoint Depression Visibility Wind Speed Wind Dir Waves Ship Positions

Overseas Boston

Owner: ASC Leasing VI, Inc., Philadelphia, PA. More information available from US FCC via Universal Licensing System and Coast Guard Vessel Documentation Center.

Last reported at 2016-May-04 04:22 UTC. Time now 2016-May-05 02:49 UTC.
Position N 38°03' W 122°06'.

Length 183 m; draft 8.8 m.

Type: Tanker. MMSI: 338221000.

Date/timePositionNaut miles runAvg speedWind from/ knotsBaromVisibWave heightAir tempDewpointWater temp
2016-May-04 04:22N 38°03' W 122°06'1 1.0
2016-May-04 03:24N 38°02' W 122°07'6 6.9
2016-May-04 02:34N 38°04' W 122°14'9 8.8
2016-May-04 01:33N 38°00' W 122°25'9 8.8
2016-May-04 00:33N 37°52' W 122°25'9 9.2
2016-May-03 23:33N 37°47' W 122°35'1010.0
2016-May-03 22:34N 37°42' W 122°46'9 8.7
2016-May-03 21:33N 37°37' W 122°55'8 8.2
2016-May-03 20:34N 37°32' W 123°03'10 9.0
2016-May-03 19:30N 37°25' W 123°11'8 8.8
2016-May-03 18:33N 37°18' W 123°18'9 9.1
2016-May-03 17:33N 37°11' W 123°25'10 9.3
2016-May-03 16:28N 37°04' W 123°33'8 7.4
2016-May-03 15:24N 36°57' W 123°37'8 9.0
2016-May-03 14:32N 36°49' W 123°38'3410.9
2016-May-03 11:24N 36°15' W 123°33'1112.3
2016-May-03 10:32N 36°04' W 123°31'1212.3
2016-May-03 09:33N 35°53' W 123°28'1212.2
2016-May-03 08:33N 35°41' W 123°25'1512.4
2016-May-03 07:23N 35°26' W 123°21'1213.4
2016-May-03 06:30N 35°16' W 123°14'1414.2
2016-May-03 05:31N 35°07' W 123°01'1414.1
2016-May-03 04:31N 34°58' W 122°48'3113.7
2016-May-03 02:15N 34°37' W 122°20'20512.8
2016-May-02 10:17N 33°39' W 118°23'810.9
2016-May-02 09:33N 33°39' W 118°13'7 6.6
2016-May-02 08:33N 33°46' W 118°13'1 0.9
2016-May-02 07:33N 33°47' W 118°13'0 0.0
2016-May-02 06:33N 33°47' W 118°13'0 0.0
2016-May-02 05:33N 33°47' W 118°13'0 0.0
2016-May-02 04:33N 33°47' W 118°13'0 0.0
2016-May-02 03:33N 33°47' W 118°13'0 0.0
2016-May-02 02:33N 33°47' W 118°13'0 0.0
2016-May-02 01:33N 33°47' W 118°13'0 0.0
2016-May-02 00:33N 33°47' W 118°13'0 0.0
2016-May-01 23:33N 33°47' W 118°13'0 0.0
2016-May-01 22:33N 33°47' W 118°13'0 0.0
2016-May-01 21:33N 33°47' W 118°13'0 0.0
2016-May-01 20:33N 33°47' W 118°13'0 0.0
2016-May-01 19:33N 33°47' W 118°13'0 0.0
2016-May-01 18:33N 33°47' W 118°13'0 0.0
2016-May-01 17:33N 33°47' W 118°13'0 0.0
2016-May-01 16:33N 33°47' W 118°13'0 0.0
2016-May-01 15:33N 33°47' W 118°13'0 0.0
2016-May-01 14:33N 33°47' W 118°13'0 0.0
2016-May-01 13:33N 33°47' W 118°13'0 0.0
2016-May-01 12:30N 33°47' W 118°13'0 0.0
2016-May-01 11:33N 33°47' W 118°13'0 0.0
2016-May-01 10:33N 33°47' W 118°13'0 0.0
2016-May-01 09:30N 33°47' W 118°13'0 0.0
2016-May-01 08:33N 33°47' W 118°13'0 0.0
2016-May-01 07:33N 33°47' W 118°13'0 0.0
2016-May-01 06:33N 33°47' W 118°13'0 0.0
2016-May-01 05:33N 33°47' W 118°13'0 0.0
2016-May-01 04:33N 33°47' W 118°13'0 0.0
2016-May-01 03:33N 33°47' W 118°13'0 0.0
2016-May-01 02:33N 33°47' W 118°13'0 0.0
2016-May-01 01:33N 33°47' W 118°13'0 0.0
2016-May-01 00:30N 33°47' W 118°13'0 0.0
2016-Apr-30 23:30N 33°47' W 118°13'0 0.0
2016-Apr-30 22:33N 33°47' W 118°13'0 0.0
2016-Apr-30 21:33N 33°47' W 118°13'0 0.0
2016-Apr-30 20:33N 33°47' W 118°13'0 0.0
2016-Apr-30 19:33N 33°47' W 118°13'0 0.0
2016-Apr-30 18:30N 33°47' W 118°13'0 0.0
2016-Apr-30 17:33N 33°47' W 118°13'0 0.0
2016-Apr-30 16:33N 33°47' W 118°13'0 0.0
2016-Apr-30 15:33N 33°47' W 118°13'0 0.0
2016-Apr-30 14:33N 33°47' W 118°13'0 0.0
2016-Apr-30 13:33N 33°47' W 118°13'0 0.0
2016-Apr-30 12:33N 33°47' W 118°13'0 0.0
2016-Apr-30 11:33N 33°47' W 118°13'0 0.0
2016-Apr-30 10:33N 33°47' W 118°13'0 0.0
2016-Apr-30 09:30N 33°47' W 118°13'0 0.0
2016-Apr-30 08:33N 33°47' W 118°13'0 0.0
2016-Apr-30 07:30N 33°47' W 118°13'0 0.0
2016-Apr-30 06:33N 33°47' W 118°13'0 0.0
2016-Apr-30 05:33N 33°47' W 118°13'0 0.0
2016-Apr-30 04:33N 33°47' W 118°13'0 0.0
2016-Apr-30 03:33N 33°47' W 118°13'0 0.0
2016-Apr-30 02:30N 33°47' W 118°13'0 0.0
2016-Apr-30 01:27N 33°47' W 118°13'0 0.0
2016-Apr-30 00:33N 33°47' W 118°13'0 0.0
2016-Apr-29 23:33N 33°47' W 118°13'0 0.0
2016-Apr-29 22:33N 33°47' W 118°13'0 0.0
2016-Apr-29 21:33N 33°47' W 118°13'0 0.0
2016-Apr-29 20:24N 33°47' W 118°13'0 0.0
2016-Apr-29 19:33N 33°47' W 118°13'0 0.0
2016-Apr-29 18:33N 33°47' W 118°13'0 0.0
2016-Apr-29 17:33N 33°47' W 118°13'0 0.0
2016-Apr-29 16:33N 33°47' W 118°13'0 0.0
2016-Apr-29 15:30N 33°47' W 118°13'0 0.0
2016-Apr-29 14:33N 33°47' W 118°13'0 0.0
2016-Apr-29 13:33N 33°47' W 118°13'0 0.0
2016-Apr-29 12:33N 33°47' W 118°13'0 0.0
2016-Apr-29 11:30N 33°47' W 118°13'0 0.0
2016-Apr-29 10:33N 33°47' W 118°13'0 0.0
2016-Apr-29 09:33N 33°47' W 118°13'0 0.0
2016-Apr-29 08:33N 33°47' W 118°13'0 0.0
2016-Apr-29 07:33N 33°47' W 118°13'0 0.0
2016-Apr-29 06:27N 33°47' W 118°13'0 0.0
2016-Apr-29 05:33N 33°47' W 118°13'0 0.0
2016-Apr-29 04:33N 33°47' W 118°13'0 0.0
2016-Apr-29 03:33N 33°47' W 118°13'0 0.0
2016-Apr-29 02:33N 33°47' W 118°13'0 0.0
2016-Apr-29 01:33N 33°47' W 118°13'0 0.0
2016-Apr-29 00:30N 33°47' W 118°13'0 0.0
2016-Apr-28 23:33N 33°47' W 118°13'0 0.0
2016-Apr-28 22:33N 33°47' W 118°13'0 0.0
2016-Apr-28 21:33N 33°47' W 118°13'0 0.0
2016-Apr-28 20:33N 33°47' W 118°13'0 0.0
2016-Apr-28 19:33N 33°47' W 118°13'0 0.0
2016-Apr-28 18:33N 33°47' W 118°13'0 0.0
2016-Apr-28 17:33N 33°47' W 118°13'0 0.0
2016-Apr-28 16:33N 33°47' W 118°13'0 0.0
2016-Apr-28 15:30N 33°47' W 118°13'0 0.0
2016-Apr-28 14:30N 33°47' W 118°13'0 0.0
2016-Apr-28 13:33N 33°47' W 118°13'0 0.0
2016-Apr-28 12:33N 33°47' W 118°13'0 0.0
2016-Apr-28 11:33N 33°47' W 118°13'0 0.0
2016-Apr-28 10:33N 33°47' W 118°13'0 0.0
2016-Apr-28 09:33N 33°47' W 118°13'0 0.0
2016-Apr-28 08:33N 33°47' W 118°13'0 0.0
2016-Apr-28 07:33N 33°47' W 118°13'0 0.0
2016-Apr-28 06:33N 33°47' W 118°13'0 0.0
2016-Apr-28 05:33N 33°47' W 118°13'0 0.0
2016-Apr-28 04:33N 33°47' W 118°13'0 0.0
2016-Apr-28 03:33N 33°47' W 118°13'0 0.0
2016-Apr-28 02:33N 33°47' W 118°13'0 0.0
2016-Apr-28 01:33N 33°47' W 118°13'0 0.0
2016-Apr-28 00:33N 33°47' W 118°13'0 0.0
2016-Apr-27 23:33N 33°47' W 118°13'0 0.0
2016-Apr-27 22:33N 33°47' W 118°13'0 0.0
2016-Apr-27 21:33N 33°47' W 118°13'0 0.0
2016-Apr-27 20:33N 33°47' W 118°13'0 0.0
2016-Apr-27 19:33N 33°47' W 118°13'0 0.0
2016-Apr-27 18:33N 33°47' W 118°13'0 0.0
2016-Apr-27 17:30N 33°47' W 118°13'0 0.0
2016-Apr-27 16:33N 33°47' W 118°13'0 0.0
2016-Apr-27 15:33N 33°47' W 118°13'0 0.0
2016-Apr-27 14:33N 33°47' W 118°13'0 0.0
2016-Apr-27 13:33N 33°47' W 118°13'0 0.0
2016-Apr-27 12:33N 33°47' W 118°13'0 0.0
2016-Apr-27 11:33N 33°47' W 118°13'0 0.0
2016-Apr-27 10:33N 33°47' W 118°13'0 0.0
2016-Apr-27 09:33N 33°47' W 118°13'0 0.0
2016-Apr-27 08:33N 33°47' W 118°13'0 0.0
2016-Apr-27 07:33N 33°47' W 118°13'0 0.0
2016-Apr-27 06:33N 33°47' W 118°13'0 0.0
2016-Apr-27 05:33N 33°47' W 118°13'0 0.0
2016-Apr-27 04:33N 33°47' W 118°13'0 0.0
2016-Apr-27 03:33N 33°47' W 118°13'0 0.0
2016-Apr-27 02:33N 33°47' W 118°13'0 0.0
2016-Apr-27 01:33N 33°47' W 118°13'0 0.0
2016-Apr-27 00:33N 33°47' W 118°13'0 0.0
2016-Apr-26 23:30N 33°47' W 118°13'0 0.0
2016-Apr-26 22:33N 33°47' W 118°13'0 0.0
2016-Apr-26 21:33N 33°47' W 118°13'0 0.0
2016-Apr-26 20:33N 33°47' W 118°13'0 0.0
2016-Apr-26 19:33N 33°47' W 118°13'0 0.0
2016-Apr-26 18:33N 33°47' W 118°13'0 0.0
2016-Apr-26 17:33N 33°47' W 118°13'0 0.0
2016-Apr-26 16:33N 33°47' W 118°13'0 0.0
2016-Apr-26 15:33N 33°47' W 118°13'0 0.0
2016-Apr-26 14:33N 33°47' W 118°13'0 0.0
2016-Apr-26 13:33N 33°47' W 118°13'0 0.0
2016-Apr-26 12:27N 33°47' W 118°13'0 0.0
2016-Apr-26 11:33N 33°47' W 118°13'1 0.8
2016-Apr-26 10:33N 33°46' W 118°13'5 5.2
2016-Apr-26 09:33N 33°41' W 118°11'7 7.3
2016-Apr-26 08:34N 33°36' W 118°17'233 9.9
2016-Apr-25 09:00N 34°54' W 122°42'36514.6 340 / 301017.7 5.4 1.513.311.414.7
2016-Apr-24 08:00N 40°30' W 125°42'   280 / 61021.0 5.4 1.012.810.913.0
Track history (hours):
 
Tides and Currents Weather Stations Pressure Air Temp Water Temp Dewpoint Dewpoint Depression Visibility Wind Speed Wind Dir Waves Ship Positions

Overseas Boston

Owner: ASC Leasing VI, Inc., Philadelphia, PA. More information available from US FCC via Universal Licensing System and Coast Guard Vessel Documentation Center.

Last reported at 2016-May-04 04:22 UTC. Time now 2016-May-05 02:49 UTC.
Position N 38°03' W 122°06'.

Length 183 m; draft 8.8 m.

Type: Tanker. MMSI: 338221000.

Date/timePositionNaut miles runAvg speedWind from/ knotsBaromVisibWave heightAir tempDewpointWater temp
2016-May-04 04:22N 38°03' W 122°06'1 1.0
2016-May-04 03:24N 38°02' W 122°07'6 6.9
2016-May-04 02:34N 38°04' W 122°14'9 8.8
2016-May-04 01:33N 38°00' W 122°25'9 8.8
2016-May-04 00:33N 37°52' W 122°25'9 9.2
2016-May-03 23:33N 37°47' W 122°35'1010.0
2016-May-03 22:34N 37°42' W 122°46'9 8.7
2016-May-03 21:33N 37°37' W 122°55'8 8.2
2016-May-03 20:34N 37°32' W 123°03'10 9.0
2016-May-03 19:30N 37°25' W 123°11'8 8.8
2016-May-03 18:33N 37°18' W 123°18'9 9.1
2016-May-03 17:33N 37°11' W 123°25'10 9.3
2016-May-03 16:28N 37°04' W 123°33'8 7.4
2016-May-03 15:24N 36°57' W 123°37'8 9.0
2016-May-03 14:32N 36°49' W 123°38'3410.9
2016-May-03 11:24N 36°15' W 123°33'1112.3
2016-May-03 10:32N 36°04' W 123°31'1212.3
2016-May-03 09:33N 35°53' W 123°28'1212.2
2016-May-03 08:33N 35°41' W 123°25'1512.4
2016-May-03 07:23N 35°26' W 123°21'1213.4
2016-May-03 06:30N 35°16' W 123°14'1414.2
2016-May-03 05:31N 35°07' W 123°01'1414.1
2016-May-03 04:31N 34°58' W 122°48'3113.7
2016-May-03 02:15N 34°37' W 122°20'20512.8
2016-May-02 10:17N 33°39' W 118°23'810.9
2016-May-02 09:33N 33°39' W 118°13'7 6.6
2016-May-02 08:33N 33°46' W 118°13'1 0.9
2016-May-02 07:33N 33°47' W 118°13'0 0.0
2016-May-02 06:33N 33°47' W 118°13'0 0.0
2016-May-02 05:33N 33°47' W 118°13'0 0.0
2016-May-02 04:33N 33°47' W 118°13'0 0.0
2016-May-02 03:33N 33°47' W 118°13'0 0.0
2016-May-02 02:33N 33°47' W 118°13'0 0.0
2016-May-02 01:33N 33°47' W 118°13'0 0.0
2016-May-02 00:33N 33°47' W 118°13'0 0.0
2016-May-01 23:33N 33°47' W 118°13'0 0.0
2016-May-01 22:33N 33°47' W 118°13'0 0.0
2016-May-01 21:33N 33°47' W 118°13'0 0.0
2016-May-01 20:33N 33°47' W 118°13'0 0.0
2016-May-01 19:33N 33°47' W 118°13'0 0.0
2016-May-01 18:33N 33°47' W 118°13'0 0.0
2016-May-01 17:33N 33°47' W 118°13'0 0.0
2016-May-01 16:33N 33°47' W 118°13'0 0.0
2016-May-01 15:33N 33°47' W 118°13'0 0.0
2016-May-01 14:33N 33°47' W 118°13'0 0.0
2016-May-01 13:33N 33°47' W 118°13'0 0.0
2016-May-01 12:30N 33°47' W 118°13'0 0.0
2016-May-01 11:33N 33°47' W 118°13'0 0.0
2016-May-01 10:33N 33°47' W 118°13'0 0.0
2016-May-01 09:30N 33°47' W 118°13'0 0.0
2016-May-01 08:33N 33°47' W 118°13'0 0.0
2016-May-01 07:33N 33°47' W 118°13'0 0.0
2016-May-01 06:33N 33°47' W 118°13'0 0.0
2016-May-01 05:33N 33°47' W 118°13'0 0.0
2016-May-01 04:33N 33°47' W 118°13'0 0.0
2016-May-01 03:33N 33°47' W 118°13'0 0.0
2016-May-01 02:33N 33°47' W 118°13'0 0.0
2016-May-01 01:33N 33°47' W 118°13'0 0.0
2016-May-01 00:30N 33°47' W 118°13'0 0.0
2016-Apr-30 23:30N 33°47' W 118°13'0 0.0
2016-Apr-30 22:33N 33°47' W 118°13'0 0.0
2016-Apr-30 21:33N 33°47' W 118°13'0 0.0
2016-Apr-30 20:33N 33°47' W 118°13'0 0.0
2016-Apr-30 19:33N 33°47' W 118°13'0 0.0
2016-Apr-30 18:30N 33°47' W 118°13'0 0.0
2016-Apr-30 17:33N 33°47' W 118°13'0 0.0
2016-Apr-30 16:33N 33°47' W 118°13'0 0.0
2016-Apr-30 15:33N 33°47' W 118°13'0 0.0
2016-Apr-30 14:33N 33°47' W 118°13'0 0.0
2016-Apr-30 13:33N 33°47' W 118°13'0 0.0
2016-Apr-30 12:33N 33°47' W 118°13'0 0.0
2016-Apr-30 11:33N 33°47' W 118°13'0 0.0
2016-Apr-30 10:33N 33°47' W 118°13'0 0.0
2016-Apr-30 09:30N 33°47' W 118°13'0 0.0
2016-Apr-30 08:33N 33°47' W 118°13'0 0.0
2016-Apr-30 07:30N 33°47' W 118°13'0 0.0
2016-Apr-30 06:33N 33°47' W 118°13'0 0.0
2016-Apr-30 05:33N 33°47' W 118°13'0 0.0
2016-Apr-30 04:33N 33°47' W 118°13'0 0.0
2016-Apr-30 03:33N 33°47' W 118°13'0 0.0
2016-Apr-30 02:30N 33°47' W 118°13'0 0.0
2016-Apr-30 01:27N 33°47' W 118°13'0 0.0
2016-Apr-30 00:33N 33°47' W 118°13'0 0.0
2016-Apr-29 23:33N 33°47' W 118°13'0 0.0
2016-Apr-29 22:33N 33°47' W 118°13'0 0.0
2016-Apr-29 21:33N 33°47' W 118°13'0 0.0
2016-Apr-29 20:24N 33°47' W 118°13'0 0.0
2016-Apr-29 19:33N 33°47' W 118°13'0 0.0
2016-Apr-29 18:33N 33°47' W 118°13'0 0.0
2016-Apr-29 17:33N 33°47' W 118°13'0 0.0
2016-Apr-29 16:33N 33°47' W 118°13'0 0.0
2016-Apr-29 15:30N 33°47' W 118°13'0 0.0
2016-Apr-29 14:33N 33°47' W 118°13'0 0.0
2016-Apr-29 13:33N 33°47' W 118°13'0 0.0
2016-Apr-29 12:33N 33°47' W 118°13'0 0.0
2016-Apr-29 11:30N 33°47' W 118°13'0 0.0
2016-Apr-29 10:33N 33°47' W 118°13'0 0.0
2016-Apr-29 09:33N 33°47' W 118°13'0 0.0
2016-Apr-29 08:33N 33°47' W 118°13'0 0.0
2016-Apr-29 07:33N 33°47' W 118°13'0 0.0
2016-Apr-29 06:27N 33°47' W 118°13'0 0.0
2016-Apr-29 05:33N 33°47' W 118°13'0 0.0
2016-Apr-29 04:33N 33°47' W 118°13'0 0.0
2016-Apr-29 03:33N 33°47' W 118°13'0 0.0
2016-Apr-29 02:33N 33°47' W 118°13'0 0.0
2016-Apr-29 01:33N 33°47' W 118°13'0 0.0
2016-Apr-29 00:30N 33°47' W 118°13'0 0.0
2016-Apr-28 23:33N 33°47' W 118°13'0 0.0
2016-Apr-28 22:33N 33°47' W 118°13'0 0.0
2016-Apr-28 21:33N 33°47' W 118°13'0 0.0
2016-Apr-28 20:33N 33°47' W 118°13'0 0.0
2016-Apr-28 19:33N 33°47' W 118°13'0 0.0
2016-Apr-28 18:33N 33°47' W 118°13'0 0.0
2016-Apr-28 17:33N 33°47' W 118°13'0 0.0
2016-Apr-28 16:33N 33°47' W 118°13'0 0.0
2016-Apr-28 15:30N 33°47' W 118°13'0 0.0
2016-Apr-28 14:30N 33°47' W 118°13'0 0.0
2016-Apr-28 13:33N 33°47' W 118°13'0 0.0
2016-Apr-28 12:33N 33°47' W 118°13'0 0.0
2016-Apr-28 11:33N 33°47' W 118°13'0 0.0
2016-Apr-28 10:33N 33°47' W 118°13'0 0.0
2016-Apr-28 09:33N 33°47' W 118°13'0 0.0
2016-Apr-28 08:33N 33°47' W 118°13'0 0.0
2016-Apr-28 07:33N 33°47' W 118°13'0 0.0
2016-Apr-28 06:33N 33°47' W 118°13'0 0.0
2016-Apr-28 05:33N 33°47' W 118°13'0 0.0
2016-Apr-28 04:33N 33°47' W 118°13'0 0.0
2016-Apr-28 03:33N 33°47' W 118°13'0 0.0
2016-Apr-28 02:33N 33°47' W 118°13'0 0.0
2016-Apr-28 01:33N 33°47' W 118°13'0 0.0
2016-Apr-28 00:33N 33°47' W 118°13'0 0.0
2016-Apr-27 23:33N 33°47' W 118°13'0 0.0
2016-Apr-27 22:33N 33°47' W 118°13'0 0.0
2016-Apr-27 21:33N 33°47' W 118°13'0 0.0
2016-Apr-27 20:33N 33°47' W 118°13'0 0.0
2016-Apr-27 19:33N 33°47' W 118°13'0 0.0
2016-Apr-27 18:33N 33°47' W 118°13'0 0.0
2016-Apr-27 17:30N 33°47' W 118°13'0 0.0
2016-Apr-27 16:33N 33°47' W 118°13'0 0.0
2016-Apr-27 15:33N 33°47' W 118°13'0 0.0
2016-Apr-27 14:33N 33°47' W 118°13'0 0.0
2016-Apr-27 13:33N 33°47' W 118°13'0 0.0
2016-Apr-27 12:33N 33°47' W 118°13'0 0.0
2016-Apr-27 11:33N 33°47' W 118°13'0 0.0
2016-Apr-27 10:33N 33°47' W 118°13'0 0.0
2016-Apr-27 09:33N 33°47' W 118°13'0 0.0
2016-Apr-27 08:33N 33°47' W 118°13'0 0.0
2016-Apr-27 07:33N 33°47' W 118°13'0 0.0
2016-Apr-27 06:33N 33°47' W 118°13'0 0.0
2016-Apr-27 05:33N 33°47' W 118°13'0 0.0
2016-Apr-27 04:33N 33°47' W 118°13'0 0.0
2016-Apr-27 03:33N 33°47' W 118°13'0 0.0
2016-Apr-27 02:33N 33°47' W 118°13'0 0.0
2016-Apr-27 01:33N 33°47' W 118°13'0 0.0
2016-Apr-27 00:33N 33°47' W 118°13'0 0.0
2016-Apr-26 23:30N 33°47' W 118°13'0 0.0
2016-Apr-26 22:33N 33°47' W 118°13'0 0.0
2016-Apr-26 21:33N 33°47' W 118°13'0 0.0
2016-Apr-26 20:33N 33°47' W 118°13'0 0.0
2016-Apr-26 19:33N 33°47' W 118°13'0 0.0
2016-Apr-26 18:33N 33°47' W 118°13'0 0.0
2016-Apr-26 17:33N 33°47' W 118°13'0 0.0
2016-Apr-26 16:33N 33°47' W 118°13'0 0.0
2016-Apr-26 15:33N 33°47' W 118°13'0 0.0
2016-Apr-26 14:33N 33°47' W 118°13'0 0.0
2016-Apr-26 13:33N 33°47' W 118°13'0 0.0
2016-Apr-26 12:27N 33°47' W 118°13'0 0.0
2016-Apr-26 11:33N 33°47' W 118°13'1 0.8
2016-Apr-26 10:33N 33°46' W 118°13'5 5.2
2016-Apr-26 09:33N 33°41' W 118°11'7 7.3
2016-Apr-26 08:34N 33°36' W 118°17'233 9.9
2016-Apr-25 09:00N 34°54' W 122°42'36514.6 340 / 301017.7 5.4 1.513.311.414.7
2016-Apr-24 08:00N 40°30' W 125°42'   280 / 61021.0 5.4 1.012.810.913.0

Dump ship's entire track history